Time;durP1;ratioP1;P1;durP2;ratioP2;P2;SDS_P1;SDS_P2;PMS_P1;PMS_P2;Temp;Humidity;BMP_temperature;BMP_pressure;BME280_temperature;BME280_humidity;BME280_pressure;Samples;Min_cycle;Max_cycle;Signal;HPM_P1;HPM_P2
2023/06/09 00:01:47;;;;;;;1999.90;999.90;;;;;;;14.77;100.00;93085.69;5065311;28;20172;-58
2023/06/09 00:04:13;;;;;;;1999.90;999.90;;;;;;;14.85;100.00;93084.03;5064969;28;20202;-58
2023/06/09 00:06:38;;;;;;;1999.90;999.90;;;;;;;14.95;100.00;93082.63;5065605;28;20170;-58
2023/06/09 00:09:04;;;;;;;1999.90;999.90;;;;;;;14.98;100.00;93084.41;5065103;28;20181;-58
2023/06/09 00:11:29;;;;;;;1999.90;999.90;;;;;;;15.00;100.00;93094.88;5065013;28;20204;-58
2023/06/09 00:13:55;;;;;;;1999.90;999.90;;;;;;;15.02;100.00;93103.41;5065029;28;20205;-56
2023/06/09 00:16:23;;;;;;;1999.90;999.90;;;;;;;15.03;100.00;93115.91;5064805;28;20219;-58
2023/06/09 00:18:50;;;;;;;1999.90;999.90;;;;;;;15.01;100.00;93143.13;5065346;28;20170;-56
2023/06/09 00:21:18;;;;;;;1999.90;999.90;;;;;;;14.87;100.00;93168.72;5064995;28;20180;-58
2023/06/09 00:23:47;;;;;;;1999.90;999.90;;;;;;;14.81;100.00;93207.16;5064805;28;20177;-58
2023/06/09 00:26:13;;;;;;;1999.90;999.90;;;;;;;14.91;100.00;93271.72;5063686;28;20256;-58
2023/06/09 00:28:39;;;;;;;1999.90;999.90;;;;;;;14.95;100.00;93357.47;5064471;28;20248;-58
2023/06/09 00:31:04;;;;;;;1999.90;999.90;;;;;;;15.03;100.00;93452.06;5064630;28;20196;-58
2023/06/09 00:33:30;;;;;;;1999.90;999.90;;;;;;;15.05;100.00;93547.78;5064624;28;20182;-58
2023/06/09 00:35:55;;;;;;;1999.90;999.90;;;;;;;15.08;100.00;93638.31;5065073;28;20185;-58
2023/06/09 00:38:20;;;;;;;1999.90;999.90;;;;;;;15.10;100.00;93718.34;5064766;28;20179;-58
2023/06/09 00:40:48;;;;;;;1999.90;999.90;;;;;;;15.14;100.00;93782.19;5064938;28;20223;-58
2023/06/09 00:43:14;;;;;;;1999.90;999.90;;;;;;;15.16;100.00;93839.47;5064899;28;20246;-59
2023/06/09 00:45:40;;;;;;;1999.90;999.90;;;;;;;15.13;100.00;93887.91;5065075;28;20202;-57
2023/06/09 00:48:06;;;;;;;1999.90;999.90;;;;;;;15.06;100.00;93896.50;5065133;28;20200;-57
2023/06/09 00:50:31;;;;;;;1999.90;999.90;;;;;;;15.03;100.00;93897.44;5064769;28;20177;-58
2023/06/09 00:52:58;;;;;;;1999.90;999.90;;;;;;;15.02;100.00;93868.44;5064253;28;20208;-57
2023/06/09 00:55:25;;;;;;;1999.90;999.90;;;;;;;14.97;100.00;93865.56;5064256;28;20170;-58
2023/06/09 00:57:55;;;;;;;1999.90;999.90;;;;;;;14.96;100.00;93837.31;5064427;28;20174;-58
2023/06/09 01:00:25;;;;;;;1999.90;999.90;;;;;;;14.92;100.00;93809.25;5064620;28;20199;-58
2023/06/09 01:02:52;;;;;;;1999.90;999.90;;;;;;;14.85;100.00;93779.34;5064190;28;20225;-58
2023/06/09 01:05:17;;;;;;;1999.90;999.90;;;;;;;14.87;100.00;93748.66;5063999;28;20247;-57
2023/06/09 01:08:15;;;;;;;1999.90;999.90;;;;;;;14.88;100.00;93728.94;5064503;28;20171;-58
2023/06/09 01:11:05;;;;;;;1999.90;999.90;;;;;;;14.85;100.00;93705.16;5047121;28;20186;-58
2023/06/09 01:13:33;;;;;;;1999.90;999.90;;;;;;;14.85;100.00;93688.66;5064381;28;20234;-58
2023/06/09 01:16:25;;;;;;;1999.90;999.90;;;;;;;14.82;100.00;93669.63;5063966;28;20209;-58
2023/06/09 01:18:52;;;;;;;1999.90;999.90;;;;;;;14.80;100.00;93656.34;5033887;28;20189;-58
2023/06/09 01:21:35;;;;;;;1999.90;999.90;;;;;;;14.77;100.00;93638.03;5064268;28;20168;-59
2023/06/09 01:24:32;;;;;;;1999.90;999.90;;;;;;;14.80;100.00;93637.09;5064335;28;20166;-58
2023/06/09 01:27:01;;;;;;;1999.90;999.90;;;;;;;14.82;100.00;93617.41;5064327;28;20178;-58
2023/06/09 01:29:30;;;;;;;1999.90;999.90;;;;;;;14.78;100.00;93606.56;5063664;28;20251;-58
2023/06/09 01:31:56;;;;;;;1999.90;999.90;;;;;;;14.76;100.00;93592.56;5063703;28;20170;-58
2023/06/09 01:34:22;;;;;;;1999.90;999.90;;;;;;;14.75;100.00;93574.53;5063569;28;20157;-58
2023/06/09 01:36:51;;;;;;;1999.90;999.90;;;;;;;14.79;100.00;93558.63;5063698;28;20207;-58
2023/06/09 01:39:16;;;;;;;1999.90;999.90;;;;;;;14.82;100.00;93535.69;5063649;28;20219;-58
2023/06/09 01:41:42;;;;;;;1999.90;999.90;;;;;;;14.82;100.00;93523.94;5063694;28;20165;-59
2023/06/09 01:44:07;;;;;;;1999.90;999.90;;;;;;;14.84;100.00;93515.97;5063523;28;20164;-59
2023/06/09 01:46:32;;;;;;;1999.90;999.90;;;;;;;14.87;100.00;93509.53;5063572;28;20182;-59
2023/06/09 01:49:13;;;;;;;1999.90;999.90;;;;;;;14.88;100.00;93503.56;5063524;28;20177;-59
2023/06/09 01:52:21;;;;;;;1999.90;999.90;;;;;;;14.91;100.00;93499.88;5063298;28;20224;-58
2023/06/09 01:54:57;;;;;;;1999.90;999.90;;;;;;;14.91;100.00;93493.59;5063388;28;20212;-58
2023/06/09 01:57:25;;;;;;;1999.90;999.90;;;;;;;14.93;100.00;93502.88;5063170;28;20165;-58
2023/06/09 01:59:58;;;;;;;1999.90;999.90;;;;;;;14.94;100.00;93503.66;5063371;28;20174;-58
2023/06/09 02:02:26;;;;;;;1999.90;999.90;;;;;;;14.85;100.00;93523.75;5063562;28;20237;-58
2023/06/09 02:04:53;;;;;;;1999.90;999.90;;;;;;;14.83;100.00;93537.19;5063892;28;20194;-58
2023/06/09 02:07:21;;;;;;;1999.90;999.90;;;;;;;14.84;100.00;93557.97;5063905;28;20194;-58
2023/06/09 02:09:47;;;;;;;1999.90;999.90;;;;;;;14.88;100.00;93572.28;5063321;28;20168;-58
2023/06/09 02:12:13;;;;;;;1999.90;999.90;;;;;;;14.86;100.00;93595.97;5063337;28;20238;-59
2023/06/09 02:14:39;;;;;;;1999.90;999.90;;;;;;;14.89;100.00;93638.97;5063299;28;20181;-59
2023/06/09 02:17:05;;;;;;;1999.90;999.90;;;;;;;14.91;100.00;93681.28;5063288;28;20171;-59
2023/06/09 02:19:35;;;;;;;1999.90;999.90;;;;;;;14.91;100.00;93725.25;5063792;28;20215;-59
2023/06/09 02:22:00;;;;;;;1999.90;999.90;;;;;;;14.92;100.00;93776.25;5063179;28;20166;-59
2023/06/09 02:24:28;;;;;;;1999.90;999.90;;;;;;;14.95;100.00;93804.78;5063118;28;20227;-59
2023/06/09 02:26:54;;;;;;;1999.90;999.90;;;;;;;14.98;100.00;93832.13;5063193;28;20177;-59
2023/06/09 02:29:19;;;;;;;1999.90;999.90;;;;;;;14.99;100.00;93857.59;5063067;28;20174;-59
2023/06/09 02:31:45;;;;;;;1999.90;999.90;;;;;;;14.95;100.00;93866.03;5063131;28;20216;-58
2023/06/09 02:34:10;;;;;;;1999.90;999.90;;;;;;;14.92;100.00;93869.72;5063594;28;20200;-59
2023/06/09 02:36:37;;;;;;;1999.90;999.90;;;;;;;14.99;100.00;93868.59;5063142;28;20170;-59
2023/06/09 02:39:03;;;;;;;1999.90;999.90;;;;;;;14.81;100.00;93866.72;5063808;28;20167;-59
2023/06/09 02:41:29;;;;;;;1999.90;999.90;;;;;;;14.87;100.00;93851.13;5062922;28;20173;-59
2023/06/09 02:43:54;;;;;;;1999.90;999.90;;;;;;;14.85;100.00;93842.56;5063321;28;20168;-58
2023/06/09 02:46:22;;;;;;;1999.90;999.90;;;;;;;14.86;100.00;93843.34;5062974;28;20256;-59
2023/06/09 02:48:48;;;;;;;1999.90;999.90;;;;;;;14.82;100.00;93838.00;5063910;28;20162;-59
2023/06/09 02:51:13;;;;;;;1999.90;999.90;;;;;;;14.80;100.00;93840.47;5066508;28;20169;-59
2023/06/09 02:53:38;;;;;;;1999.90;999.90;;;;;;;14.77;100.00;93835.91;5066637;28;20177;-59
2023/06/09 02:56:04;;;;;;;1999.90;999.90;;;;;;;14.78;100.00;93831.16;5066351;28;20441;-58
2023/06/09 02:58:30;;;;;;;1999.90;999.90;;;;;;;14.79;100.00;93825.19;5066440;28;20169;-59
2023/06/09 03:00:55;;;;;;;1999.90;999.90;;;;;;;14.76;100.00;93823.41;5066313;28;20166;-58
2023/06/09 03:03:20;;;;;;;1999.90;999.90;;;;;;;14.74;100.00;93819.59;5066225;28;20218;-58
2023/06/09 03:05:47;;;;;;;1999.90;999.90;;;;;;;14.70;100.00;93819.78;5066694;28;20202;-59
2023/06/09 03:08:12;;;;;;;1999.90;999.90;;;;;;;14.66;100.00;93819.19;5066728;28;20170;-59
2023/06/09 03:10:37;;;;;;;1999.90;999.90;;;;;;;14.68;100.00;93815.97;5066463;28;20170;-58
2023/06/09 03:13:03;;;;;;;1999.90;999.90;;;;;;;14.65;100.00;93806.69;5066252;28;20170;-59
2023/06/09 03:15:28;;;;;;;1999.90;999.90;;;;;;;14.63;100.00;93809.13;5065934;28;20170;-58
2023/06/09 03:17:54;;;;;;;1999.90;999.90;;;;;;;14.62;100.00;93806.84;5066112;28;20170;-58
2023/06/09 03:20:19;;;;;;;1999.90;999.90;;;;;;;14.64;100.00;93796.16;5065977;28;20245;-58
2023/06/09 03:22:45;;;;;;;1999.90;999.90;;;;;;;14.58;100.00;93796.03;5066480;28;20173;-59
2023/06/09 03:25:11;;;;;;;1999.90;999.90;;;;;;;14.59;100.00;93785.78;5065830;28;20251;-60
2023/06/09 03:27:37;;;;;;;1999.90;999.90;;;;;;;14.55;100.00;93774.22;5065975;28;20208;-59
2023/06/09 03:30:03;;;;;;;1999.90;999.90;;;;;;;14.54;100.00;93762.50;5066071;28;20166;-59
2023/06/09 03:32:28;;;;;;;1999.90;999.90;;;;;;;14.44;100.00;93757.50;5065743;28;20194;-59
2023/06/09 03:34:55;;;;;;;1999.90;999.90;;;;;;;14.46;100.00;93739.34;5065667;28;20179;-59
2023/06/09 03:37:20;;;;;;;1999.90;999.90;;;;;;;14.50;100.00;93731.66;5065722;28;20173;-59
2023/06/09 03:39:46;;;;;;;1999.90;999.90;;;;;;;14.55;100.00;93724.78;5065641;28;20162;-59
2023/06/09 03:42:11;;;;;;;1999.90;999.90;;;;;;;14.66;100.00;93711.25;5065648;28;20170;-59
2023/06/09 03:44:37;;;;;;;1999.90;999.90;;;;;;;14.69;100.00;93713.84;5065445;28;20269;-58
2023/06/09 03:47:02;;;;;;;1999.90;999.90;;;;;;;14.71;100.00;93722.34;5066260;28;20170;-59
2023/06/09 03:49:27;;;;;;;1999.90;999.90;;;;;;;14.70;100.00;93740.09;5065890;28;20173;-59
2023/06/09 03:51:53;;;;;;;1999.90;999.90;;;;;;;14.69;100.00;93746.81;5065390;28;20174;-59
2023/06/09 03:54:18;;;;;;;1999.90;999.90;;;;;;;14.70;100.00;93742.84;5065766;28;20209;-59
2023/06/09 03:56:43;;;;;;;1999.90;999.90;;;;;;;14.71;100.00;93744.34;5065304;28;20170;-59
2023/06/09 03:59:09;;;;;;;1999.90;999.90;;;;;;;14.72;100.00;93754.09;5065179;28;20173;-59
2023/06/09 04:01:34;;;;;;;1999.90;999.90;;;;;;;14.71;100.00;93749.09;5065221;28;20174;-59
2023/06/09 04:04:00;;;;;;;1999.90;999.90;;;;;;;14.75;100.00;93750.41;5065394;28;20245;-59
2023/06/09 04:06:26;;;;;;;1999.90;999.90;;;;;;;14.77;100.00;93753.47;5064996;28;20202;-59
2023/06/09 04:08:51;;;;;;;1999.90;999.90;;;;;;;14.81;100.00;93743.06;5065128;28;20201;-59
2023/06/09 04:11:17;;;;;;;1999.90;999.90;;;;;;;14.99;100.00;93742.13;5065517;28;20169;-58
2023/06/09 04:13:42;;;;;;;1999.90;999.90;;;;;;;15.20;100.00;93739.03;5064969;28;20213;-59
2023/06/09 04:16:07;;;;;;;1999.90;999.90;;;;;;;15.33;100.00;93767.03;5065066;28;20170;-59
2023/06/09 04:18:33;;;;;;;1999.90;999.90;;;;;;;15.44;100.00;93797.50;5064979;28;20185;-58
2023/06/09 04:20:58;;;;;;;1999.90;999.90;;;;;;;15.72;100.00;93829.03;5065109;28;20202;-58
2023/06/09 04:23:27;;;;;;;1999.90;999.90;;;;;;;16.24;100.00;93866.72;5065203;28;20244;-59
2023/06/09 04:25:53;;;;;;;1999.90;999.90;;;;;;;16.87;100.00;93941.66;5064611;28;20202;-59
2023/06/09 04:28:18;;;;;;;1999.90;999.90;;;;;;;17.29;100.00;94257.38;5064734;28;20223;-58
2023/06/09 04:30:44;;;;;;;1999.90;999.90;;;;;;;17.79;100.00;94520.69;5064678;28;20173;-59
2023/06/09 04:33:09;;;;;;;1999.90;999.90;;;;;;;18.04;100.00;94742.03;5064506;28;20169;-59
2023/06/09 04:35:35;;;;;;;1999.90;999.90;;;;;;;18.19;100.00;94816.75;5065042;28;20170;-58
2023/06/09 04:38:01;;;;;;;1999.90;999.90;;;;;;;18.55;100.00;94874.72;5065329;28;20170;-58
2023/06/09 04:40:29;;;;;;;1999.90;999.90;;;;;;;18.49;100.00;94915.31;5064477;28;20197;-59
2023/06/09 04:42:57;;;;;;;1999.90;999.90;;;;;;;18.78;100.00;94927.34;5064550;28;20173;-59
2023/06/09 04:45:34;;;;;;;1999.90;999.90;;;;;;;18.99;100.00;94947.72;5064791;28;20205;-59
2023/06/09 04:48:00;;;;;;;1999.90;999.90;;;;;;;19.28;100.00;94953.44;5064930;28;20189;-59
2023/06/09 04:50:32;;;;;;;1999.90;999.90;;;;;;;19.77;100.00;94973.13;5064854;28;20193;-58
2023/06/09 04:52:58;;;;;;;1999.90;999.90;;;;;;;20.17;100.00;94976.22;5064797;28;20170;-58
2023/06/09 04:55:25;;;;;;;1999.90;999.90;;;;;;;20.07;100.00;94999.69;5064227;28;20173;-59
2023/06/09 04:57:55;;;;;;;1999.90;999.90;;;;;;;20.04;100.00;95008.97;5064672;28;20177;-59
2023/06/09 05:00:21;;;;;;;1999.90;999.90;;;;;;;19.96;100.00;95002.25;5064091;28;20161;-59
2023/06/09 05:02:47;;;;;;;1999.90;999.90;;;;;;;20.53;100.00;95006.41;5064268;28;20221;-59
2023/06/09 05:05:12;;;;;;;1999.90;999.90;;;;;;;20.97;100.00;95023.09;5064579;28;20224;-59
2023/06/09 05:07:41;;;;;;;1999.90;999.90;;;;;;;21.29;100.00;95022.91;5064241;28;20178;-59
2023/06/09 05:10:10;;;;;;;1999.90;999.90;;;;;;;21.72;100.00;95029.63;5063773;28;20176;-60
2023/06/09 05:12:35;;;;;;;1999.90;999.90;;;;;;;20.93;100.00;95039.97;5064287;28;20174;-59
2023/06/09 05:15:02;;;;;;;1999.90;999.90;;;;;;;21.36;100.00;95033.63;5064023;28;20196;-59
2023/06/09 05:17:27;;;;;;;1999.90;999.90;;;;;;;21.27;100.00;95036.50;5063789;28;20193;-59
2023/06/09 05:19:53;;;;;;;1999.90;999.90;;;;;;;21.37;100.00;95037.16;5064417;28;20174;-59
2023/06/09 05:22:18;;;;;;;1999.90;999.90;;;;;;;21.85;100.00;95041.22;5063826;28;20233;-59
2023/06/09 05:24:43;;;;;;;1999.90;999.90;;;;;;;21.30;100.00;95046.66;5063701;28;20194;-59
2023/06/09 05:27:10;;;;;;;1999.90;999.90;;;;;;;20.73;100.00;95050.97;5064234;28;20167;-58
2023/06/09 05:29:36;;;;;;;1999.90;999.90;;;;;;;20.93;100.00;95042.75;5063581;28;20174;-59
2023/06/09 05:32:01;;;;;;;1999.90;999.90;;;;;;;20.85;100.00;95033.25;5063637;28;20241;-59
2023/06/09 05:34:26;;;;;;;1999.90;999.90;;;;;;;21.24;100.00;95043.00;5063651;28;20177;-59
2023/06/09 05:36:52;;;;;;;1999.90;999.90;;;;;;;21.41;100.00;95052.38;5063662;28;20226;-59
2023/06/09 05:39:17;;;;;;;1999.90;999.90;;;;;;;21.77;100.00;95056.75;5063646;28;20215;-59
2023/06/09 05:41:42;;;;;;;1999.90;999.90;;;;;;;22.23;100.00;95061.19;5063771;28;20170;-59
2023/06/09 05:44:08;;;;;;;1999.90;999.90;;;;;;;22.05;100.00;95072.59;5064130;28;20170;-59
2023/06/09 05:46:37;;;;;;;1999.90;999.90;;;;;;;22.32;100.00;95063.03;5063677;28;20501;-59
2023/06/09 05:49:03;;;;;;;1999.90;999.90;;;;;;;22.60;100.00;95063.41;5063543;28;20181;-58
2023/06/09 05:51:28;;;;;;;1999.90;999.90;;;;;;;22.05;100.00;95072.59;5063423;28;20162;-58
2023/06/09 05:53:53;;;;;;;1999.90;999.90;;;;;;;21.43;100.00;95072.13;5063586;28;20245;-58
2023/06/09 05:56:19;;;;;;;1999.90;999.90;;;;;;;21.00;100.00;95064.59;5063337;28;20254;-60
2023/06/09 05:58:45;;;;;;;1999.90;999.90;;;;;;;20.86;100.00;95065.31;5063390;28;20174;-60
2023/06/09 06:01:12;;;;;;;1999.90;999.90;;;;;;;21.43;100.00;95054.69;5063347;28;20162;-59
2023/06/09 06:03:38;;;;;;;1999.90;999.90;;;;;;;22.32;100.00;95057.47;5063077;28;20229;-58
2023/06/09 06:06:04;;;;;;;1999.90;999.90;;;;;;;23.27;100.00;95058.03;5063750;28;20229;-58
2023/06/09 06:08:29;;;;;;;1999.90;999.90;;;;;;;23.89;100.00;95062.84;5063396;28;20193;-59
2023/06/09 06:10:55;;;;;;;1999.90;999.90;;;;;;;24.62;100.00;95085.09;5063712;28;20233;-58
2023/06/09 06:13:20;;;;;;;1999.90;999.90;;;;;;;24.69;100.00;95084.63;5063669;28;20177;-58
2023/06/09 06:15:45;;;;;;;1999.90;999.90;;;;;;;25.02;100.00;95090.31;5063480;28;20381;-59
2023/06/09 06:18:11;;;;;;;1999.90;999.90;;;;;;;24.62;100.00;95093.47;5063205;28;20180;-59
2023/06/09 06:20:36;;;;;;;1999.90;999.90;;;;;;;24.68;100.00;95089.44;5063613;28;20174;-58
2023/06/09 06:23:02;;;;;;;1999.90;999.90;;;;;;;24.78;100.00;95098.34;5063142;28;20233;-58
2023/06/09 06:25:28;;;;;;;1999.90;999.90;;;;;;;24.41;100.00;95089.28;5066596;28;20194;-59
2023/06/09 06:27:55;;;;;;;1999.90;999.90;;;;;;;24.21;100.00;95095.78;5067479;28;20245;-58
2023/06/09 06:30:20;;;;;;;1999.90;999.90;;;;;;;24.61;100.00;95097.47;5067311;28;20162;-59
2023/06/09 06:32:52;;;;;;;1999.90;999.90;;;;;;;24.54;100.00;95090.34;5066933;28;20234;-58
2023/06/09 06:35:28;;;;;;;1999.90;999.90;;;;;;;24.95;100.00;95090.78;5066773;28;20172;-57
2023/06/09 06:37:55;;;;;;;1999.90;999.90;;;;;;;25.32;100.00;95092.16;5066822;28;20177;-58
2023/06/09 06:40:21;;;;;;;1999.90;999.90;;;;;;;25.46;100.00;95087.59;5066779;28;20162;-58
2023/06/09 06:42:47;;;;;;;1999.90;999.90;;;;;;;25.51;100.00;95086.06;5067228;28;20166;-52
2023/06/09 06:45:12;;;;;;;1999.90;999.90;;;;;;;26.12;100.00;95090.38;5066616;28;20189;-57
2023/06/09 06:47:40;;;;;;;1999.90;999.90;;;;;;;26.54;100.00;95092.81;5066908;28;20192;-57
2023/06/09 06:50:08;;;;;;;1999.90;999.90;;;;;;;26.74;100.00;95095.31;5066609;28;20173;-58
2023/06/09 06:52:33;;;;;;;1999.90;999.90;;;;;;;26.89;100.00;95084.56;5066371;28;20192;-57
2023/06/09 06:54:59;;;;;;;1999.90;999.90;;;;;;;27.51;100.00;95099.75;5066462;28;20170;-57
2023/06/09 06:57:24;;;;;;;1999.90;999.90;;;;;;;27.93;100.00;95094.31;5066705;28;20166;-55
2023/06/09 06:59:50;;;;;;;1999.90;999.90;;;;;;;28.09;100.00;95099.03;5066351;28;20166;-57
2023/06/09 07:02:16;;;;;;;1999.90;999.90;;;;;;;27.02;100.00;95101.53;5066724;28;20278;-58
2023/06/09 07:04:41;;;;;;;1999.90;999.90;;;;;;;26.91;100.00;95098.78;5066926;28;20264;-57
2023/06/09 07:07:07;;;;;;;1999.90;999.90;;;;;;;27.59;100.00;95101.47;5066310;28;20166;-58
2023/06/09 07:09:32;;;;;;;1999.90;999.90;;;;;;;27.42;100.00;95103.63;5066258;28;20166;-57
2023/06/09 07:11:57;;;;;;;1999.90;999.90;;;;;;;26.84;100.00;95110.56;5066097;28;20173;-57
2023/06/09 07:14:23;;;;;;;1999.90;999.90;;;;;;;28.69;100.00;95104.56;5066057;28;20241;-58
2023/06/09 07:16:48;;;;;;;1999.90;999.90;;;;;;;28.16;100.00;95109.69;5066543;28;20197;-58
2023/06/09 07:19:13;;;;;;;1999.90;999.90;;;;;;;27.90;100.00;95103.78;5066450;28;20167;-55
2023/06/09 07:21:39;;;;;;;1999.90;999.90;;;;;;;26.84;100.00;95110.56;5065840;28;20205;-57
2023/06/09 07:24:04;;;;;;;1999.90;999.90;;;;;;;27.37;100.00;95104.44;5066663;28;20173;-56
2023/06/09 07:26:30;;;;;;;1999.90;999.90;;;;;;;28.94;100.00;95103.22;5066510;28;20226;-56
2023/06/09 07:28:55;;;;;;;1999.90;999.90;;;;;;;27.99;100.00;95111.13;5066426;28;20178;-59
2023/06/09 07:31:21;;;;;;;1999.90;999.90;;;;;;;28.87;100.00;95101.03;5065758;28;20193;-60
2023/06/09 07:33:46;;;;;;;1999.90;999.90;;;;;;;28.54;99.76;95107.06;5065773;28;20166;-59
2023/06/09 07:36:13;;;;;;;1999.90;999.90;;;;;;;28.60;100.00;95114.13;5065681;28;20219;-58
2023/06/09 07:38:39;;;;;;;1999.90;999.90;;;;;;;28.47;100.00;95110.44;5065707;28;20170;-57
2023/06/09 07:41:05;;;;;;;1999.90;999.90;;;;;;;28.06;100.00;95105.72;5065621;28;20205;-58
2023/06/09 07:43:31;;;;;;;1999.90;999.90;;;;;;;28.37;100.00;95106.44;5065614;28;20197;-57
2023/06/09 07:45:56;;;;;;;1999.90;999.90;;;;;;;27.56;100.00;95110.94;5065492;28;20201;-58
2023/06/09 07:48:22;;;;;;;1999.90;999.90;;;;;;;28.23;100.00;95109.09;5065473;28;20166;-57
2023/06/09 07:50:47;;;;;;;1999.90;999.90;;;;;;;27.74;100.00;95101.88;5065583;28;20166;-55
2023/06/09 07:53:13;;;;;;;1999.90;999.90;;;;;;;27.58;100.00;95099.97;5065404;28;20170;-52
2023/06/09 07:55:38;;;;;;;1999.90;999.90;;;;;;;28.29;100.00;95095.78;5065174;28;20170;-55
2023/06/09 07:58:03;;;;;;;1999.90;999.90;;;;;;;29.49;100.00;95097.63;5065678;28;20167;-55
2023/06/09 08:00:29;;;;;;;1999.90;999.90;;;;;;;29.15;100.00;95090.97;5065116;28;20174;-55
2023/06/09 08:03:02;;;;;;;1999.90;999.90;;;;;;;30.38;90.41;95102.63;5065279;28;20221;-56
2023/06/09 08:05:28;;;;;;;1999.90;999.90;;;;;;;28.25;100.00;95092.50;5065796;28;20197;-58
2023/06/09 08:07:54;;;;;;;1999.90;999.90;;;;;;;27.80;100.00;95094.16;5065544;28;20178;-56
2023/06/09 08:10:19;;;;;;;1999.90;999.90;;;;;;;29.11;100.00;95081.31;5065503;28;20238;-57
2023/06/09 08:12:44;;;;;;;1999.90;999.90;;;;;;;30.16;81.22;95097.38;5064969;28;20174;-57
2023/06/09 08:15:10;;;;;;;1999.90;999.90;;;;;;;29.49;92.52;95085.63;5064927;28;20173;-57
2023/06/09 08:17:36;;;;;;;1999.90;999.90;;;;;;;29.87;93.33;95089.91;5064793;28;20181;-57
2023/06/09 08:20:03;;;;;;;1999.90;999.90;;;;;;;28.79;87.31;95091.66;5065608;28;20174;-55
2023/06/09 08:22:30;;;;;;;1999.90;999.90;;;;;;;29.01;84.04;95108.25;5065574;28;20184;-47
2023/06/09 08:24:56;;;;;;;1999.90;999.90;;;;;;;27.56;94.21;95096.91;5065202;28;20200;-54
2023/06/09 08:27:22;;;;;;;1999.90;999.90;;;;;;;28.28;92.74;95099.09;5065258;28;20174;-54
2023/06/09 08:29:48;;;;;;;1999.90;999.90;;;;;;;28.13;91.63;95088.28;5064988;28;20174;-53
2023/06/09 08:32:14;;;;;;;1999.90;999.90;;;;;;;28.83;90.95;95081.63;5065297;28;20174;-55
2023/06/09 08:34:39;;;;;;;1999.90;999.90;;;;;;;28.92;86.75;95088.94;5064534;28;20198;-55
2023/06/09 08:37:05;;;;;;;1999.90;999.90;;;;;;;29.33;86.32;95095.06;5065428;28;20178;-55
2023/06/09 08:39:30;;;;;;;1999.90;999.90;;;;;;;27.80;91.75;95090.59;5064711;28;20174;-54
2023/06/09 08:41:59;;;;;;;1999.90;999.90;;;;;;;27.88;94.48;95088.75;5065253;28;20243;-55
2023/06/09 08:44:26;;;;;;;1999.90;999.90;;;;;;;28.46;92.10;95092.03;5064339;28;20178;-54
2023/06/09 08:46:54;;;;;;;1999.90;999.90;;;;;;;27.98;99.56;95076.66;5063641;28;20241;-54
2023/06/09 08:49:20;;;;;;;1999.90;999.90;;;;;;;27.81;98.97;95078.84;5064511;28;20174;-56
2023/06/09 08:51:46;;;;;;;1999.90;999.90;;;;;;;29.06;93.61;95082.16;5063950;28;20181;-52
2023/06/09 08:54:15;;;;;;;1999.90;999.90;;;;;;;28.77;84.99;95083.00;5064221;28;20169;-53
2023/06/09 08:56:41;;;;;;;1999.90;999.90;;;;;;;28.31;91.35;95086.81;5064642;28;20180;-53
2023/06/09 08:59:07;;;;;;;1999.90;999.90;;;;;;;29.93;79.92;95080.06;5064588;28;20197;-54
2023/06/09 09:01:33;;;;;;;1999.90;999.90;;;;;;;31.16;73.10;95080.03;5064014;28;20247;-56
2023/06/09 09:03:58;;;;;;;1999.90;999.90;;;;;;;29.15;78.86;95073.31;5064347;28;20241;-54
2023/06/09 09:06:24;;;;;;;1999.90;999.90;;;;;;;27.23;98.86;95071.88;5063932;28;20202;-54
2023/06/09 09:08:50;;;;;;;1999.90;999.90;;;;;;;28.40;94.56;95071.66;5064432;28;20181;-51
2023/06/09 09:11:15;;;;;;;1999.90;999.90;;;;;;;27.74;100.00;95078.63;5063876;28;20215;-52
2023/06/09 09:13:41;;;;;;;1999.90;999.90;;;;;;;29.50;90.23;95061.81;5063787;28;20221;-54
2023/06/09 09:16:13;;;;;;;1999.90;999.90;;;;;;;28.61;92.67;95069.88;5063899;28;20200;-54
2023/06/09 09:18:44;;;;;;;1999.90;999.90;;;;;;;27.22;100.00;95070.38;5064306;28;20172;-55
2023/06/09 09:21:11;;;;;;;1999.90;999.90;;;;;;;26.74;100.00;95072.91;5064355;28;20253;-53
2023/06/09 09:23:37;;;;;;;1999.90;999.90;;;;;;;28.45;95.49;95062.41;5063700;28;20174;-54
2023/06/09 09:26:03;;;;;;;1999.90;999.90;;;;;;;28.36;91.58;95062.75;5063627;28;20208;-55
2023/06/09 09:28:42;;;;;;;1999.90;999.90;;;;;;;29.96;82.94;95066.94;5063597;28;20177;-55
2023/06/09 09:31:08;;;;;;;1999.90;999.90;;;;;;;31.42;73.65;95063.03;5064510;28;20233;-57
2023/06/09 09:33:39;;;;;;;1999.90;999.90;;;;;;;30.99;71.12;95062.72;5063578;28;20196;-54
2023/06/09 09:36:08;;;;;;;1999.90;999.90;;;;;;;29.79;75.77;95058.03;5064208;28;20162;-55
2023/06/09 09:38:34;;;;;;;1999.90;999.90;;;;;;;29.60;77.17;95057.31;5064196;28;20196;-57
2023/06/09 09:41:00;;;;;;;1999.90;999.90;;;;;;;28.84;83.26;95057.09;5064102;28;20177;-52
2023/06/09 09:43:29;;;;;;;1999.90;999.90;;;;;;;31.08;73.13;95051.72;5063626;28;20170;-56
2023/06/09 09:45:58;;;;;;;1999.90;999.90;;;;;;;31.74;64.13;95049.44;5063690;28;20207;-55
2023/06/09 09:48:24;;;;;;;1999.90;999.90;;;;;;;32.42;63.96;95053.63;5063523;28;20170;-56
2023/06/09 09:50:52;;;;;;;1999.90;999.90;;;;;;;30.65;69.67;95065.41;5063521;28;20237;-56
2023/06/09 09:53:24;;;;;;;1999.90;999.90;;;;;;;30.07;72.17;95061.09;5064062;28;20199;-57
2023/06/09 09:55:52;;;;;;;1999.90;999.90;;;;;;;31.17;70.28;95053.31;5064104;28;20162;-56
2023/06/09 09:58:18;;;;;;;1999.90;999.90;;;;;;;29.71;70.75;95055.06;5065543;28;20170;-55
2023/06/09 10:00:46;;;;;;;1999.90;999.90;;;;;;;31.01;67.37;95052.38;5068024;28;20177;-56
2023/06/09 10:03:19;;;;;;;1999.90;999.90;;;;;;;30.85;64.01;95052.75;5067133;28;20221;-57
2023/06/09 10:05:46;;;;;;;1999.90;999.90;;;;;;;30.81;63.83;95049.50;5067192;28;20189;-58
2023/06/09 10:08:21;;;;;;;1999.90;999.90;;;;;;;31.03;65.55;95049.03;5067879;28;20173;-57
2023/06/09 10:10:47;;;;;;;1999.90;999.90;;;;;;;30.70;69.90;95042.00;5067876;28;20176;-58
2023/06/09 10:13:13;;;;;;;1999.90;999.90;;;;;;;30.37;69.11;95033.44;5067750;28;20170;-57
2023/06/09 10:15:42;;;;;;;1999.90;999.90;;;;;;;30.21;65.94;95042.94;5067467;28;20193;-56
2023/06/09 10:18:08;;;;;;;1999.90;999.90;;;;;;;29.67;68.85;95039.78;5067766;28;20174;-57
2023/06/09 10:20:35;;;;;;;1999.90;999.90;;;;;;;29.37;66.60;95042.03;5067037;28;20192;-58
2023/06/09 10:23:01;;;;;;;1999.90;999.90;;;;;;;30.04;62.89;95028.41;5067115;28;20170;-57
2023/06/09 10:25:27;;;;;;;1999.90;999.90;;;;;;;31.39;54.47;95029.50;5066834;28;20198;-57
2023/06/09 10:27:52;;;;;;;1999.90;999.90;;;;;;;31.95;53.15;95024.00;5067024;28;20174;-57
2023/06/09 10:30:19;;;;;;;1999.90;999.90;;;;;;;30.96;62.16;95033.50;5066939;28;20180;-57
2023/06/09 10:32:52;;;;;;;1999.90;999.90;;;;;;;30.31;67.50;95029.97;5066939;28;20177;-58
2023/06/09 10:35:23;;;;;;;1999.90;999.90;;;;;;;30.24;66.47;95020.09;5067380;28;20182;-57
2023/06/09 10:37:50;;;;;;;1999.90;999.90;;;;;;;29.66;67.46;95027.00;5067118;28;20171;-58
2023/06/09 10:40:38;;;;;;;1999.90;999.90;;;;;;;28.76;75.73;95019.63;5066748;28;20170;-57
2023/06/09 10:43:18;;;;;;;1999.90;999.90;;;;;;;28.74;71.21;95025.00;5067353;28;20166;-57
2023/06/09 10:45:53;;;;;;;1999.90;999.90;;;;;;;30.01;62.09;95032.28;5066100;28;20202;-57
2023/06/09 10:48:41;;;;;;;1999.90;999.90;;;;;;;28.87;71.38;95019.47;5067407;28;20180;-58
2023/06/09 10:51:26;;;;;;;1999.90;999.90;;;;;;;29.40;67.80;95016.41;5066747;28;20174;-57